Time;durP1;ratioP1;P1;durP2;ratioP2;P2;SDS_P1;SDS_P2;PMS_P1;PMS_P2;Temp;Humidity;BMP_temperature;BMP_pressure;BME280_temperature;BME280_humidity;BME280_pressure;Samples;Min_cycle;Max_cycle;Signal;HPM_P1;HPM_P2
2021/06/01 00:00:53;;;;;;;10.52;2.13;;;16.70;60.50;;;;;;2071026;28;20076;-68
2021/06/01 00:01:54;;;;;;;2.58;1.70;;;16.70;61.40;;;;;;2064465;28;20030;-68
2021/06/01 00:02:55;;;;;;;2.65;1.77;;;16.70;61.70;;;;;;2070043;28;20057;-68
2021/06/01 00:03:56;;;;;;;2.55;1.90;;;16.70;61.20;;;;;;2070740;28;20363;-68
2021/06/01 00:04:57;;;;;;;6.55;2.17;;;16.60;62.00;;;;;;2063755;28;20177;-68
2021/06/01 00:05:57;;;;;;;2.90;2.03;;;16.60;61.80;;;;;;2063584;28;20022;-68
2021/06/01 00:06:58;;;;;;;2.60;1.83;;;16.60;61.50;;;;;;2063922;28;20104;-69
2021/06/01 00:07:58;;;;;;;4.45;2.20;;;16.60;61.60;;;;;;2063817;28;20026;-68
2021/06/01 00:09:00;;;;;;;4.18;2.20;;;16.60;63.20;;;;;;2063602;28;20057;-69
2021/06/01 00:10:00;;;;;;;2.55;2.10;;;16.50;63.00;;;;;;2063654;28;20038;-68
2021/06/01 00:11:01;;;;;;;3.45;2.22;;;16.50;64.10;;;;;;2063841;28;20061;-68
2021/06/01 00:12:03;;;;;;;3.60;2.17;;;16.50;65.50;;;;;;2063801;28;20018;-68
2021/06/01 00:13:03;;;;;;;4.45;2.78;;;16.50;64.80;;;;;;2062701;28;20101;-68
2021/06/01 00:14:05;;;;;;;4.03;2.33;;;16.40;65.60;;;;;;2062768;28;20030;-68
2021/06/01 00:15:07;;;;;;;4.00;2.33;;;16.40;66.00;;;;;;2063878;28;20084;-69
2021/06/01 00:16:08;;;;;;;3.45;2.50;;;16.40;64.50;;;;;;2063609;28;20047;-69
2021/06/01 00:17:09;;;;;;;2.17;1.70;;;16.30;64.10;;;;;;2063794;28;20029;-68
2021/06/01 00:18:09;;;;;;;2.97;2.13;;;16.30;64.20;;;;;;2063679;28;20125;-68
2021/06/01 00:19:10;;;;;;;4.18;2.30;;;16.30;64.60;;;;;;2063739;28;20034;-68
2021/06/01 00:20:11;;;;;;;2.78;2.03;;;16.30;64.90;;;;;;2063417;28;20026;-68
2021/06/01 00:21:12;;;;;;;3.08;2.05;;;16.30;65.80;;;;;;2063659;28;20153;-69
2021/06/01 00:22:12;;;;;;;3.28;2.10;;;16.20;65.70;;;;;;2062965;28;20466;-68
2021/06/01 00:23:13;;;;;;;4.55;2.60;;;16.20;66.50;;;;;;2063771;28;20348;-68
2021/06/01 00:24:14;;;;;;;4.10;2.17;;;16.20;65.50;;;;;;2063560;28;20046;-68
2021/06/01 00:25:14;;;;;;;2.20;2.00;;;16.20;67.10;;;;;;2063720;28;20022;-69
2021/06/01 00:26:15;;;;;;;3.08;2.20;;;16.10;67.00;;;;;;2056103;28;20031;-68
2021/06/01 00:27:16;;;;;;;5.05;2.20;;;16.10;67.40;;;;;;2057279;28;20101;-69
2021/06/01 00:28:16;;;;;;;4.25;2.60;;;16.10;68.00;;;;;;2062598;28;20426;-68
2021/06/01 00:29:17;;;;;;;3.80;2.10;;;16.00;68.40;;;;;;2063765;28;20035;-68
2021/06/01 00:30:18;;;;;;;3.05;2.20;;;16.00;67.80;;;;;;2063529;28;20030;-69
2021/06/01 00:31:19;;;;;;;2.30;2.03;;;16.00;66.30;;;;;;2063691;28;20038;-68
2021/06/01 00:32:20;;;;;;;6.88;2.75;;;16.00;68.40;;;;;;2062879;28;20034;-68
2021/06/01 00:33:20;;;;;;;3.58;2.10;;;16.00;69.90;;;;;;2063783;28;20042;-68
2021/06/01 00:34:21;;;;;;;5.80;2.65;;;15.90;69.20;;;;;;2063507;28;20026;-69
2021/06/01 00:35:21;;;;;;;4.35;2.22;;;15.90;69.50;;;;;;2063603;28;20060;-68
2021/06/01 00:36:22;;;;;;;6.13;2.40;;;15.90;69.90;;;;;;2063565;28;20550;-69
2021/06/01 00:37:23;;;;;;;5.13;2.97;;;15.90;70.00;;;;;;2063468;28;20105;-69
2021/06/01 00:38:23;;;;;;;2.88;2.33;;;15.80;71.20;;;;;;2063620;28;20031;-69
2021/06/01 00:39:24;;;;;;;3.65;2.85;;;15.80;70.40;;;;;;2063756;28;20360;-68
2021/06/01 00:40:25;;;;;;;5.43;2.25;;;15.80;70.70;;;;;;2063261;28;20054;-68
2021/06/01 00:41:26;;;;;;;2.72;2.20;;;15.70;71.70;;;;;;2062973;28;20034;-68
2021/06/01 00:42:26;;;;;;;6.07;2.60;;;15.70;70.50;;;;;;2062190;28;20958;-68
2021/06/01 00:43:27;;;;;;;8.82;2.60;;;15.70;72.40;;;;;;2063069;28;20026;-68
2021/06/01 00:44:27;;;;;;;9.25;2.30;;;15.70;71.90;;;;;;2063707;28;20022;-68
2021/06/01 00:45:28;;;;;;;3.05;2.50;;;15.60;70.90;;;;;;2063487;28;20653;-68
2021/06/01 00:46:29;;;;;;;2.83;2.45;;;15.60;72.60;;;;;;2063472;28;20478;-69
2021/06/01 00:47:30;;;;;;;4.97;2.67;;;15.60;72.60;;;;;;2063032;28;20032;-68
2021/06/01 00:48:30;;;;;;;5.43;2.70;;;15.60;72.50;;;;;;2063026;28;20033;-68
2021/06/01 00:49:31;;;;;;;6.80;2.78;;;15.50;73.50;;;;;;2062781;28;20022;-68
2021/06/01 00:50:32;;;;;;;5.28;2.50;;;15.50;74.10;;;;;;2063503;28;20041;-68
2021/06/01 00:51:32;;;;;;;2.67;2.47;;;15.50;73.50;;;;;;2063096;28;20041;-69
2021/06/01 00:52:33;;;;;;;3.33;2.50;;;15.40;73.50;;;;;;2062816;28;20034;-69
2021/06/01 00:53:36;;;;;;;4.18;2.38;;;15.40;74.70;;;;;;2063075;28;20057;-69
2021/06/01 00:54:37;;;;;;;3.03;2.50;;;15.40;75.00;;;;;;2063048;28;20038;-68
2021/06/01 00:55:37;;;;;;;4.05;2.58;;;15.40;74.70;;;;;;2066689;28;20028;-68
2021/06/01 00:56:40;;;;;;;4.05;2.15;;;15.30;76.20;;;;;;2062942;28;20030;-68
2021/06/01 00:57:41;;;;;;;2.92;2.63;;;15.30;74.80;;;;;;2062244;28;20403;-68
2021/06/01 00:58:42;;;;;;;3.65;2.70;;;15.30;76.10;;;;;;2063360;28;20026;-69
2021/06/01 00:59:42;;;;;;;5.30;2.17;;;15.30;75.00;;;;;;2063307;28;20105;-68
2021/06/01 01:02:16;;;;;;;3.85;2.22;;;15.20;74.60;;;;;;2045449;29;20023;-68
2021/06/01 01:03:17;;;;;;;3.60;2.55;;;15.10;75.10;;;;;;2040647;28;20111;-69
2021/06/01 01:04:18;;;;;;;3.60;2.28;;;15.20;76.30;;;;;;2046257;29;20043;-68
2021/06/01 01:05:20;;;;;;;2.40;2.22;;;15.10;76.60;;;;;;2047140;28;20032;-68
2021/06/01 01:06:47;;;;;;;3.45;2.40;;;15.10;78.00;;;;;;2054991;28;20049;-68
2021/06/01 01:08:07;;;;;;;3.78;2.65;;;15.10;80.80;;;;;;2073606;28;20477;-69
2021/06/01 01:09:12;;;;;;;4.18;2.40;;;15.00;80.30;;;;;;2068346;28;20559;-68
2021/06/01 01:10:14;;;;;;;3.80;2.33;;;14.90;78.20;;;;;;2063172;28;20026;-68
2021/06/01 01:11:27;;;;;;;3.25;2.45;;;14.90;80.50;;;;;;2062137;28;20066;-68
2021/06/01 01:12:34;;;;;;;2.80;2.47;;;14.90;81.30;;;;;;2056312;28;20027;-68
2021/06/01 01:13:43;;;;;;;11.00;2.83;;;14.90;80.50;;;;;;2063272;28;20030;-68
2021/06/01 01:14:52;;;;;;;3.15;2.50;;;14.90;82.40;;;;;;2063356;28;20042;-68
2021/06/01 01:15:53;;;;;;;3.25;2.67;;;14.80;81.80;;;;;;2062567;28;20042;-68
2021/06/01 01:16:58;;;;;;;3.13;2.58;;;14.80;82.40;;;;;;2063406;28;20455;-68
2021/06/01 01:18:04;;;;;;;3.13;2.75;;;14.80;82.50;;;;;;2062990;28;20019;-68
2021/06/01 01:19:16;;;;;;;5.15;2.55;;;14.80;83.50;;;;;;2070378;28;20034;-68
2021/06/01 01:20:32;;;;;;;3.13;2.60;;;14.70;85.40;;;;;;2066108;28;20026;-68
2021/06/01 01:21:42;;;;;;;4.00;2.60;;;14.70;85.30;;;;;;2055523;28;20027;-68
2021/06/01 01:22:45;;;;;;;3.33;2.38;;;14.70;85.00;;;;;;2059271;28;20030;-68
2021/06/01 01:24:12;;;;;;;5.10;2.58;;;14.60;82.30;;;;;;2069441;28;20042;-68
2021/06/01 01:25:41;;;;;;;3.10;2.80;;;14.60;85.50;;;;;;2066195;28;20058;-68
2021/06/01 01:27:04;;;;;;;2.92;2.30;;;14.60;85.20;;;;;;2064718;28;20533;-68
2021/06/01 01:28:42;;;;;;;5.35;2.83;;;14.50;83.20;;;;;;2060009;28;20035;-68
2021/06/01 01:29:46;;;;;;;2.65;2.40;;;14.50;87.30;;;;;;2062734;28;20118;-68
2021/06/01 01:30:51;;;;;;;2.65;2.45;;;14.40;84.90;;;;;;2059604;28;20101;-68
2021/06/01 01:31:58;;;;;;;5.80;2.70;;;14.40;86.80;;;;;;2056626;28;20046;-68
2021/06/01 01:32:59;;;;;;;5.22;2.60;;;14.40;85.50;;;;;;2068743;28;20014;-68
2021/06/01 01:34:01;;;;;;;3.35;2.70;;;14.40;86.30;;;;;;2062644;28;20045;-68
2021/06/01 01:35:06;;;;;;;2.85;2.50;;;14.40;88.00;;;;;;2063241;28;20073;-68
2021/06/01 01:36:11;;;;;;;3.75;2.72;;;14.40;89.30;;;;;;2070807;28;20029;-68
2021/06/01 01:37:12;;;;;;;3.22;2.40;;;14.30;88.40;;;;;;2068434;28;20030;-68
2021/06/01 01:38:14;;;;;;;3.55;2.55;;;14.30;88.70;;;;;;2061290;28;20035;-68
2021/06/01 01:39:15;;;;;;;4.88;2.63;;;14.30;87.30;;;;;;2062766;28;20027;-68
2021/06/01 01:40:17;;;;;;;3.65;2.97;;;14.30;89.70;;;;;;2063041;28;20018;-68
2021/06/01 01:41:19;;;;;;;2.90;2.38;;;14.30;90.40;;;;;;2063298;28;20176;-68
2021/06/01 01:42:21;;;;;;;4.45;3.28;;;14.30;91.00;;;;;;2062379;28;20085;-68
2021/06/01 01:43:26;;;;;;;4.72;3.03;;;14.30;90.70;;;;;;2057133;28;20031;-68
2021/06/01 01:44:29;;;;;;;4.15;2.58;;;14.20;90.90;;;;;;2062903;28;20030;-68
2021/06/01 01:45:33;;;;;;;4.38;3.17;;;14.20;89.30;;;;;;2062365;28;20027;-68
2021/06/01 01:47:04;;;;;;;3.28;2.50;;;14.20;90.60;;;;;;2054986;28;20046;-68
2021/06/01 01:49:22;;;;;;;3.30;2.60;;;14.10;91.10;;;;;;2055029;28;20451;-68
2021/06/01 01:50:22;;;;;;;3.00;2.65;;;14.10;91.70;;;;;;2061286;28;20027;-68
2021/06/01 01:51:25;;;;;;;2.55;2.22;;;14.10;90.60;;;;;;2062386;28;20030;-68
2021/06/01 01:52:26;;;;;;;7.22;2.80;;;14.10;90.50;;;;;;2061991;28;20072;-68
2021/06/01 01:53:27;;;;;;;3.55;2.15;;;14.10;91.70;;;;;;2062170;28;20026;-68
2021/06/01 01:54:31;;;;;;;4.22;2.50;;;14.00;90.80;;;;;;2072146;28;20022;-68
2021/06/01 01:55:32;;;;;;;5.82;3.38;;;14.00;91.70;;;;;;2069337;28;20049;-69
2021/06/01 01:56:40;;;;;;;4.13;2.90;;;14.00;91.50;;;;;;2065158;28;20374;-68
2021/06/01 01:57:46;;;;;;;4.63;2.70;;;14.00;91.80;;;;;;2080418;28;20049;-68
2021/06/01 01:58:52;;;;;;;5.38;2.53;;;14.00;91.90;;;;;;2078638;28;20443;-69
2021/06/01 01:59:53;;;;;;;7.88;3.08;;;13.90;91.70;;;;;;2064661;28;20108;-68
2021/06/01 02:00:53;;;;;;;3.92;3.20;;;13.90;91.50;;;;;;2064806;28;20034;-68
2021/06/01 02:01:55;;;;;;;4.60;2.83;;;13.90;92.30;;;;;;2066061;28;20026;-68
2021/06/01 02:02:56;;;;;;;5.35;2.80;;;13.90;92.20;;;;;;2066351;28;20034;-69
2021/06/01 02:03:57;;;;;;;6.35;2.70;;;13.90;92.00;;;;;;2072867;28;20117;-68
2021/06/01 02:04:58;;;;;;;2.70;2.38;;;13.90;92.10;;;;;;2073549;28;20022;-68
2021/06/01 02:05:59;;;;;;;5.60;3.00;;;13.90;92.80;;;;;;2066040;28;20344;-68
2021/06/01 02:07:00;;;;;;;4.40;3.00;;;13.80;92.10;;;;;;2063384;28;20027;-68
2021/06/01 02:08:01;;;;;;;5.18;2.72;;;13.80;92.20;;;;;;2065980;28;20462;-68
2021/06/01 02:09:05;;;;;;;2.80;2.45;;;13.80;92.90;;;;;;2066028;28;20019;-68
2021/06/01 02:10:10;;;;;;;4.75;2.88;;;13.80;92.30;;;;;;2057728;28;20029;-68
2021/06/01 02:11:11;;;;;;;3.15;2.55;;;13.80;91.60;;;;;;2061677;28;20486;-68
2021/06/01 02:12:11;;;;;;;5.28;3.15;;;13.80;92.00;;;;;;2064808;28;20113;-68
2021/06/01 02:13:12;;;;;;;5.07;2.80;;;13.80;92.50;;;;;;2065438;28;20015;-68
2021/06/01 02:14:13;;;;;;;4.30;2.97;;;13.80;93.50;;;;;;2065073;28;20117;-68
2021/06/01 02:15:14;;;;;;;5.45;3.13;;;13.70;94.00;;;;;;2065473;28;20026;-68
2021/06/01 02:16:14;;;;;;;5.25;2.80;;;13.70;93.30;;;;;;2065996;28;20022;-68
2021/06/01 02:17:15;;;;;;;4.60;2.88;;;13.70;92.80;;;;;;2065603;28;20029;-68
2021/06/01 02:18:16;;;;;;;3.97;2.85;;;13.70;93.00;;;;;;2065056;28;20065;-68
2021/06/01 02:19:18;;;;;;;3.45;2.55;;;13.70;92.00;;;;;;2065798;28;20112;-68
2021/06/01 02:20:19;;;;;;;3.05;2.72;;;13.70;93.30;;;;;;2065210;28;20033;-68
2021/06/01 02:21:32;;;;;;;7.13;2.92;;;13.60;93.10;;;;;;2065318;28;20037;-68
2021/06/01 02:23:59;;;;;;;3.42;2.92;;;13.60;94.10;;;;;;2065234;28;20041;-68
2021/06/01 02:25:14;;;;;;;4.10;2.50;;;13.60;94.00;;;;;;2058724;28;20557;-68
2021/06/01 02:26:49;;;;;;;5.40;2.60;;;13.50;93.70;;;;;;2059832;28;20030;-68
2021/06/01 02:28:07;;;;;;;3.30;2.53;;;13.50;95.00;;;;;;2065759;28;20375;-68
2021/06/01 02:29:26;;;;;;;3.33;2.65;;;13.40;94.30;;;;;;2072919;28;20405;-68
2021/06/01 02:30:37;;;;;;;4.15;2.95;;;13.40;95.20;;;;;;2070951;28;20434;-68
2021/06/01 02:31:46;;;;;;;4.35;2.50;;;13.40;95.20;;;;;;2065489;28;20069;-68
2021/06/01 02:32:49;;;;;;;3.28;2.45;;;13.40;93.90;;;;;;2065304;28;20058;-68
2021/06/01 02:33:51;;;;;;;4.63;2.60;;;13.40;93.50;;;;;;2066012;28;20427;-68
2021/06/01 02:34:52;;;;;;;3.85;2.67;;;13.30;94.20;;;;;;2065145;28;20033;-68
2021/06/01 02:35:54;;;;;;;3.08;2.70;;;13.30;93.50;;;;;;2065636;28;20378;-68
2021/06/01 02:36:56;;;;;;;4.60;3.30;;;13.30;94.30;;;;;;2065265;28;20113;-68
2021/06/01 02:38:00;;;;;;;2.90;2.33;;;13.30;95.10;;;;;;2065457;28;20028;-68
2021/06/01 02:39:03;;;;;;;3.42;2.80;;;13.30;94.80;;;;;;2064761;28;20113;-68
2021/06/01 02:40:05;;;;;;;3.75;2.85;;;13.30;95.10;;;;;;2064976;28;20022;-68
2021/06/01 02:41:07;;;;;;;5.50;2.40;;;13.30;95.40;;;;;;2072702;28;20041;-68
2021/06/01 02:42:09;;;;;;;3.08;2.63;;;13.30;95.00;;;;;;2065889;28;20010;-68
2021/06/01 02:43:14;;;;;;;3.33;2.45;;;13.20;95.00;;;;;;2065738;28;20022;-68
2021/06/01 02:44:15;;;;;;;5.10;2.70;;;13.20;94.40;;;;;;2065786;28;20010;-68
2021/06/01 02:45:19;;;;;;;5.97;2.92;;;13.20;93.90;;;;;;2065563;28;20026;-68
2021/06/01 02:46:20;;;;;;;5.68;2.85;;;13.20;94.90;;;;;;2065670;28;20023;-68
2021/06/01 02:47:21;;;;;;;4.32;2.95;;;13.20;95.40;;;;;;2065577;28;20359;-68
2021/06/01 02:48:23;;;;;;;5.25;2.88;;;13.20;95.90;;;;;;2079416;28;20036;-68
2021/06/01 02:49:25;;;;;;;4.32;2.55;;;13.10;95.20;;;;;;2064931;28;20038;-68
2021/06/01 02:50:29;;;;;;;7.47;3.08;;;13.10;95.80;;;;;;2065252;28;20093;-68
2021/06/01 02:51:31;;;;;;;3.75;2.80;;;13.10;96.40;;;;;;2072738;28;20033;-68
2021/06/01 02:52:33;;;;;;;5.30;2.95;;;13.10;95.50;;;;;;2072783;28;20029;-68
2021/06/01 02:53:34;;;;;;;3.35;2.85;;;13.10;95.10;;;;;;2078402;28;20064;-68
2021/06/01 02:54:35;;;;;;;3.08;2.63;;;13.00;95.70;;;;;;2065853;28;20022;-68
2021/06/01 02:55:36;;;;;;;2.70;2.50;;;13.00;95.90;;;;;;2060813;28;20069;-68
2021/06/01 02:56:38;;;;;;;6.95;2.75;;;13.00;96.30;;;;;;2061396;28;20410;-68
2021/06/01 02:57:40;;;;;;;2.95;2.35;;;13.00;96.70;;;;;;2065552;28;20061;-68
2021/06/01 02:58:42;;;;;;;4.07;2.90;;;13.00;96.30;;;;;;2065617;28;20030;-68
2021/06/01 02:59:43;;;;;;;3.72;2.78;;;13.00;96.10;;;;;;2065408;28;20475;-68
2021/06/01 03:00:45;;;;;;;5.82;3.03;;;13.00;95.10;;;;;;2065710;28;20023;-68
2021/06/01 03:01:49;;;;;;;5.45;3.50;;;13.00;96.40;;;;;;2072263;28;20025;-68
2021/06/01 03:02:50;;;;;;;4.90;2.70;;;13.00;96.10;;;;;;2070749;28;20470;-68
2021/06/01 03:03:53;;;;;;;3.25;2.40;;;12.90;96.00;;;;;;2064009;28;20165;-68
2021/06/01 03:04:55;;;;;;;3.13;2.60;;;12.90;94.70;;;;;;2064543;28;20113;-68
2021/06/01 03:05:56;;;;;;;3.22;2.65;;;12.90;94.40;;;;;;2064537;28;20819;-68
2021/06/01 03:06:56;;;;;;;3.83;2.83;;;12.90;96.20;;;;;;2065005;28;20384;-68
2021/06/01 03:08:27;;;;;;;4.80;3.00;;;12.90;96.60;;;;;;2071744;28;20457;-68
2021/06/01 03:09:27;;;;;;;5.55;2.65;;;12.90;97.30;;;;;;2068491;28;20037;-68
2021/06/01 03:10:28;;;;;;;4.85;3.05;;;12.80;96.30;;;;;;2069917;28;20112;-68
2021/06/01 03:11:32;;;;;;;4.15;2.58;;;12.80;96.10;;;;;;2062759;28;20026;-68
2021/06/01 03:13:33;;;;;;;3.58;2.85;;;12.80;97.20;;;;;;2064376;28;20023;-68
2021/06/01 03:14:34;;;;;;;4.22;2.80;;;12.80;97.00;;;;;;2063859;28;20046;-68
2021/06/01 03:15:35;;;;;;;2.83;2.63;;;12.80;96.70;;;;;;2071793;28;20022;-69
2021/06/01 03:16:36;;;;;;;3.78;3.00;;;12.70;96.90;;;;;;2069003;28;20050;-68
2021/06/01 03:17:37;;;;;;;6.93;3.15;;;12.70;97.40;;;;;;2063572;28;20023;-68
2021/06/01 03:18:38;;;;;;;3.90;2.90;;;12.70;97.00;;;;;;2064624;28;20030;-68
2021/06/01 03:19:38;;;;;;;4.45;2.90;;;12.70;97.10;;;;;;2078233;28;20022;-68
2021/06/01 03:20:39;;;;;;;3.70;3.28;;;12.70;96.50;;;;;;2079825;28;20531;-68
2021/06/01 03:21:40;;;;;;;6.18;3.00;;;12.60;96.90;;;;;;2064387;28;20470;-68
2021/06/01 03:22:40;;;;;;;3.33;2.72;;;12.60;97.10;;;;;;2063651;28;20135;-68
2021/06/01 03:23:42;;;;;;;3.78;3.00;;;12.60;96.80;;;;;;2064385;28;20430;-69
2021/06/01 03:24:43;;;;;;;4.22;3.17;;;12.60;97.90;;;;;;2064147;28;20026;-68
2021/06/01 03:25:44;;;;;;;4.90;3.22;;;12.60;98.60;;;;;;2064186;28;20033;-68
2021/06/01 03:26:45;;;;;;;4.50;3.03;;;12.60;98.50;;;;;;2064273;28;20023;-68
2021/06/01 03:27:47;;;;;;;2.60;2.38;;;12.60;97.80;;;;;;2064270;28;20030;-68
2021/06/01 03:28:48;;;;;;;6.32;3.17;;;12.60;96.90;;;;;;2063470;28;20061;-68
2021/06/01 03:29:48;;;;;;;5.00;2.88;;;12.60;97.70;;;;;;2064331;28;20026;-68
2021/06/01 03:30:50;;;;;;;4.10;3.08;;;12.50;97.00;;;;;;2064411;28;20109;-68
2021/06/01 03:31:51;;;;;;;4.00;2.83;;;12.60;96.90;;;;;;2064235;28;20030;-68
2021/06/01 03:32:51;;;;;;;3.75;3.10;;;12.50;97.40;;;;;;2063543;28;20346;-68
2021/06/01 03:33:53;;;;;;;5.25;2.85;;;12.50;98.10;;;;;;2064074;28;20058;-68
2021/06/01 03:34:53;;;;;;;4.72;2.80;;;12.50;98.00;;;;;;2064305;28;20054;-68
2021/06/01 03:35:54;;;;;;;5.00;3.40;;;12.50;97.70;;;;;;2064083;28;20524;-68
2021/06/01 03:36:55;;;;;;;3.97;2.72;;;12.50;97.40;;;;;;2064225;28;20022;-68
2021/06/01 03:37:56;;;;;;;5.78;3.50;;;12.50;97.10;;;;;;2064231;28;20092;-68
2021/06/01 03:38:57;;;;;;;4.55;3.08;;;12.50;98.10;;;;;;2064311;28;20034;-68
2021/06/01 03:39:57;;;;;;;6.75;3.40;;;12.50;98.60;;;;;;2064154;28;20112;-68
2021/06/01 03:40:58;;;;;;;3.28;2.88;;;12.50;97.60;;;;;;2064288;28;20053;-68
2021/06/01 03:41:59;;;;;;;4.90;3.10;;;12.40;97.50;;;;;;2063471;28;20033;-68
2021/06/01 03:42:59;;;;;;;7.22;3.88;;;12.40;97.40;;;;;;2063321;28;20022;-68
2021/06/01 03:44:00;;;;;;;7.50;3.72;;;12.40;98.40;;;;;;2063890;28;20023;-68
2021/06/01 03:45:01;;;;;;;3.55;3.20;;;12.40;98.90;;;;;;2064197;28;20105;-68
2021/06/01 03:46:01;;;;;;;8.35;3.50;;;12.40;98.90;;;;;;2064220;28;20049;-68
2021/06/01 03:47:02;;;;;;;4.43;2.63;;;12.40;99.10;;;;;;2059447;28;20023;-68
2021/06/01 03:48:03;;;;;;;4.60;3.10;;;12.30;98.30;;;;;;2056715;28;20415;-68
2021/06/01 03:49:04;;;;;;;5.40;3.38;;;12.40;98.90;;;;;;2064290;28;20537;-68
2021/06/01 03:50:05;;;;;;;6.57;3.80;;;12.30;98.70;;;;;;2064101;28;20574;-68
2021/06/01 03:51:06;;;;;;;4.47;2.83;;;12.40;98.80;;;;;;2064233;28;20104;-68
2021/06/01 03:52:08;;;;;;;4.75;3.25;;;12.30;98.70;;;;;;2063568;28;20069;-68
2021/06/01 03:53:08;;;;;;;6.78;3.58;;;12.30;98.80;;;;;;2063891;28;20045;-68
2021/06/01 03:54:09;;;;;;;7.18;3.05;;;12.30;98.60;;;;;;2064055;28;20049;-68
2021/06/01 03:55:10;;;;;;;4.43;3.20;;;12.30;98.40;;;;;;2064052;28;20085;-68
2021/06/01 03:56:11;;;;;;;4.88;3.70;;;12.30;99.50;;;;;;2063420;28;20471;-68
2021/06/01 03:57:12;;;;;;;7.03;3.63;;;12.40;99.90;;;;;;2064195;28;20415;-68
2021/06/01 03:58:12;;;;;;;3.25;2.95;;;12.40;99.90;;;;;;2063665;28;20113;-68
2021/06/01 03:59:13;;;;;;;6.35;3.75;;;12.40;99.90;;;;;;2064055;28;20018;-68
2021/06/01 04:00:21;;;;;;;4.97;3.30;;;12.50;99.90;;;;;;2063954;28;20018;-68
2021/06/01 04:01:22;;;;;;;4.82;2.97;;;12.60;99.90;;;;;;2063950;28;20027;-68
2021/06/01 04:02:23;;;;;;;6.55;4.00;;;12.60;99.90;;;;;;2062965;28;20057;-68
2021/06/01 04:03:23;;;;;;;5.60;3.70;;;12.70;99.90;;;;;;2064037;28;20050;-68
2021/06/01 04:04:24;;;;;;;4.05;3.55;;;12.90;99.90;;;;;;2063773;28;20536;-68
2021/06/01 04:05:25;;;;;;;6.40;3.65;;;13.00;99.90;;;;;;2064044;28;20018;-68
2021/06/01 04:06:25;;;;;;;4.78;3.55;;;13.10;99.90;;;;;;2063492;28;20061;-68
2021/06/01 04:07:26;;;;;;;4.90;3.65;;;13.20;99.90;;;;;;2064028;28;20093;-69
2021/06/01 04:08:26;;;;;;;6.32;3.22;;;13.40;99.90;;;;;;2064013;28;20081;-68
2021/06/01 04:09:27;;;;;;;4.55;3.47;;;13.50;99.90;;;;;;2059831;28;20069;-68
2021/06/01 04:10:28;;;;;;;3.35;2.67;;;13.60;99.90;;;;;;2055124;28;20041;-68
2021/06/01 04:11:31;;;;;;;5.13;3.40;;;13.80;99.30;;;;;;2055531;28;20129;-69
2021/06/01 04:12:32;;;;;;;4.32;3.00;;;13.90;99.10;;;;;;2054483;28;20035;-68
2021/06/01 04:13:33;;;;;;;3.45;3.08;;;13.90;98.80;;;;;;2055600;28;20030;-68
2021/06/01 04:14:34;;;;;;;4.82;3.33;;;13.90;98.00;;;;;;2056085;28;20027;-69
2021/06/01 04:15:34;;;;;;;6.15;3.22;;;13.90;98.00;;;;;;2055876;28;20033;-69
2021/06/01 04:16:35;;;;;;;6.07;3.50;;;13.90;98.10;;;;;;2063646;28;20027;-69
2021/06/01 04:17:36;;;;;;;4.88;2.97;;;13.90;98.20;;;;;;2070834;28;20063;-68
2021/06/01 04:18:37;;;;;;;5.30;3.38;;;14.00;98.40;;;;;;2071408;28;20030;-68
2021/06/01 04:19:38;;;;;;;3.67;3.22;;;14.20;98.20;;;;;;2063844;28;20463;-68
2021/06/01 04:20:38;;;;;;;4.88;3.50;;;14.40;97.70;;;;;;2071334;28;20031;-68
2021/06/01 04:21:42;;;;;;;7.70;3.78;;;14.60;96.60;;;;;;2063128;28;20525;-68
2021/06/01 04:22:42;;;;;;;6.85;3.45;;;14.80;96.40;;;;;;2062260;28;20026;-68
2021/06/01 04:23:43;;;;;;;5.45;4.28;;;15.10;95.50;;;;;;2063827;28;20022;-68
2021/06/01 04:24:43;;;;;;;5.28;3.78;;;15.40;94.60;;;;;;2064123;28;20919;-68
2021/06/01 04:25:44;;;;;;;5.57;3.63;;;15.70;93.80;;;;;;2063463;28;20054;-68
2021/06/01 04:26:44;;;;;;;5.13;3.53;;;15.90;92.50;;;;;;2063944;28;20036;-68
2021/06/01 04:27:45;;;;;;;3.78;3.30;;;16.10;91.40;;;;;;2063427;28;20077;-68
2021/06/01 04:28:46;;;;;;;5.75;3.47;;;16.20;91.50;;;;;;2063412;28;20062;-68
2021/06/01 04:29:46;;;;;;;4.40;3.33;;;16.30;91.90;;;;;;2063392;28;20049;-68
2021/06/01 04:30:47;;;;;;;6.35;3.28;;;16.30;91.30;;;;;;2063506;28;20109;-68
2021/06/01 04:31:48;;;;;;;5.88;3.15;;;16.30;91.80;;;;;;2063149;28;20022;-68
2021/06/01 04:32:48;;;;;;;4.93;3.30;;;16.20;90.90;;;;;;2063088;28;20034;-68
2021/06/01 04:33:49;;;;;;;5.65;3.30;;;16.20;91.20;;;;;;2063753;28;20596;-68
2021/06/01 04:34:49;;;;;;;6.30;3.90;;;16.20;92.40;;;;;;2063526;28;20379;-68
2021/06/01 04:35:50;;;;;;;5.18;3.40;;;16.20;93.40;;;;;;2063301;28;20034;-68
2021/06/01 04:36:51;;;;;;;4.53;3.30;;;16.20;94.10;;;;;;2063584;28;20085;-68
2021/06/01 04:37:52;;;;;;;7.20;3.42;;;16.10;94.50;;;;;;2063505;28;20057;-69
2021/06/01 04:38:53;;;;;;;5.65;3.53;;;16.20;94.70;;;;;;2063956;28;20030;-68
2021/06/01 04:39:54;;;;;;;7.68;3.53;;;16.20;95.00;;;;;;2063538;28;20027;-69
2021/06/01 04:40:55;;;;;;;5.10;4.03;;;16.20;95.30;;;;;;2063583;28;20041;-69
2021/06/01 04:41:55;;;;;;;5.63;3.58;;;16.30;96.00;;;;;;2063578;28;20019;-69
2021/06/01 04:42:56;;;;;;;6.63;3.47;;;16.30;95.80;;;;;;2062825;28;20069;-68
2021/06/01 04:43:56;;;;;;;5.22;3.60;;;16.40;94.20;;;;;;2063563;28;20344;-69
2021/06/01 04:44:57;;;;;;;5.57;3.47;;;16.40;93.70;;;;;;2063563;28;20025;-69
2021/06/01 04:45:58;;;;;;;3.75;2.90;;;16.50;94.10;;;;;;2066607;28;20024;-69
2021/06/01 04:46:58;;;;;;;5.43;3.20;;;16.60;94.10;;;;;;2061670;28;20034;-69
2021/06/01 04:47:59;;;;;;;4.55;3.28;;;16.70;93.50;;;;;;2062932;28;20521;-69
2021/06/01 04:49:00;;;;;;;5.05;3.30;;;16.80;93.50;;;;;;2062792;28;20022;-69
2021/06/01 04:50:01;;;;;;;4.63;3.20;;;16.90;93.90;;;;;;2060451;28;20034;-69
2021/06/01 04:51:01;;;;;;;7.00;3.40;;;16.90;93.60;;;;;;2063248;28;20104;-69
2021/06/01 04:52:03;;;;;;;3.90;3.42;;;17.00;93.50;;;;;;2063110;28;20030;-69
2021/06/01 04:53:04;;;;;;;5.60;3.70;;;17.10;93.90;;;;;;2062924;28;20033;-69
2021/06/01 04:54:04;;;;;;;4.47;2.97;;;17.20;93.40;;;;;;2063190;28;20026;-69
2021/06/01 04:55:06;;;;;;;5.15;3.60;;;17.30;93.00;;;;;;2063275;28;20054;-69
2021/06/01 04:56:06;;;;;;;4.55;3.33;;;17.40;93.50;;;;;;2063001;28;20053;-69
2021/06/01 04:57:07;;;;;;;9.68;4.03;;;17.40;92.30;;;;;;2063708;28;20036;-69
2021/06/01 04:58:08;;;;;;;3.92;3.10;;;17.50;92.60;;;;;;2062541;28;20050;-69
2021/06/01 04:59:09;;;;;;;6.32;4.03;;;17.60;92.00;;;;;;2062838;28;20026;-69
2021/06/01 05:00:11;;;;;;;4.00;3.15;;;17.70;91.40;;;;;;2062796;28;20152;-69
2021/06/01 05:01:12;;;;;;;9.02;3.50;;;17.80;91.40;;;;;;2063064;28;20065;-69
2021/06/01 05:02:12;;;;;;;5.28;3.80;;;17.90;91.00;;;;;;2062755;28;20073;-69
2021/06/01 05:03:13;;;;;;;7.78;3.72;;;18.00;91.10;;;;;;2064646;28;20014;-69
2021/06/01 05:04:13;;;;;;;4.93;3.10;;;18.10;90.50;;;;;;2064191;28;20027;-69
2021/06/01 05:05:14;;;;;;;6.38;3.75;;;18.20;88.60;;;;;;2063202;28;20098;-69
2021/06/01 05:06:16;;;;;;;5.47;3.33;;;18.20;88.50;;;;;;2062864;28;20033;-69
2021/06/01 05:07:17;;;;;;;6.05;3.50;;;18.30;89.30;;;;;;2063249;28;20089;-69
2021/06/01 05:08:17;;;;;;;3.92;3.10;;;18.40;87.30;;;;;;2063071;28;20030;-69
2021/06/01 05:09:18;;;;;;;6.43;3.33;;;18.50;87.40;;;;;;2067349;28;20077;-69
2021/06/01 05:10:19;;;;;;;4.35;3.95;;;18.60;85.60;;;;;;2068351;28;20060;-69
2021/06/01 05:11:20;;;;;;;7.43;3.92;;;18.70;86.90;;;;;;2062745;28;20034;-69
2021/06/01 05:12:21;;;;;;;7.72;3.92;;;18.70;86.40;;;;;;2062674;28;20037;-69
2021/06/01 05:13:21;;;;;;;8.27;3.33;;;18.80;84.30;;;;;;2063092;28;20022;-69
2021/06/01 05:14:22;;;;;;;5.68;3.45;;;18.90;84.10;;;;;;2063008;28;20034;-69
2021/06/01 05:15:23;;;;;;;4.78;3.28;;;19.00;83.70;;;;;;2063157;28;20030;-69
2021/06/01 05:16:24;;;;;;;4.88;3.08;;;19.10;81.90;;;;;;2063630;28;20097;-69
2021/06/01 05:17:25;;;;;;;7.57;2.97;;;19.10;81.50;;;;;;2063104;28;20026;-69
2021/06/01 05:18:26;;;;;;;7.22;3.30;;;19.20;80.60;;;;;;2063190;28;20382;-69
2021/06/01 05:19:26;;;;;;;6.38;3.15;;;19.40;79.50;;;;;;2062896;28;20045;-69
2021/06/01 05:20:27;;;;;;;5.50;3.05;;;19.40;78.30;;;;;;2063185;28;20374;-69
2021/06/01 05:21:27;;;;;;;7.32;3.75;;;19.50;78.30;;;;;;2062844;28;20018;-69
2021/06/01 05:22:28;;;;;;;3.83;3.05;;;19.60;77.20;;;;;;2070089;28;20361;-69
2021/06/01 05:23:28;;;;;;;12.35;3.53;;;19.70;76.40;;;;;;2070409;28;20101;-69
2021/06/01 05:24:29;;;;;;;8.60;3.47;;;19.80;74.80;;;;;;2071280;28;20037;-69
2021/06/01 05:25:29;;;;;;;5.70;3.08;;;19.80;73.60;;;;;;2071698;28;20374;-69
2021/06/01 05:26:30;;;;;;;5.70;3.50;;;20.00;73.10;;;;;;2063106;28;20015;-69
2021/06/01 05:27:31;;;;;;;5.47;2.70;;;20.00;73.90;;;;;;2062770;28;20029;-69
2021/06/01 05:28:32;;;;;;;9.50;2.80;;;20.10;71.50;;;;;;2063017;28;20381;-69
2021/06/01 05:29:36;;;;;;;5.63;2.90;;;20.20;69.70;;;;;;2062636;28;20065;-69
2021/06/01 05:30:41;;;;;;;3.40;2.60;;;20.30;69.70;;;;;;2062668;28;20054;-69